createdAt,value
2022-11-17T00:00:42.669Z,18.17
2022-11-17T00:03:15.851Z,17.35
2022-11-17T00:05:44.887Z,15.02
2022-11-17T00:08:12.022Z,17.83
2022-11-17T00:10:39.201Z,22.05
2022-11-17T00:13:24.580Z,16.85
2022-11-17T00:15:51.786Z,15.27
2022-11-17T00:18:37.706Z,15.77
2022-11-17T00:21:21.429Z,18.15
2022-11-17T00:23:49.852Z,14.65
2022-11-17T00:27:02.783Z,14.80
2022-11-17T00:29:30.292Z,15.02
2022-11-17T00:32:17.038Z,14.55
2022-11-17T00:34:44.173Z,14.20
2022-11-17T00:37:13.254Z,14.05
2022-11-17T00:39:40.166Z,12.25
2022-11-17T00:42:07.244Z,13.05
2022-11-17T00:44:34.058Z,12.75
2022-11-17T00:47:01.159Z,15.82
2022-11-17T00:49:27.964Z,13.15
2022-11-17T00:51:56.423Z,13.55
2022-11-17T00:54:24.011Z,12.82
2022-11-17T00:56:51.397Z,12.50
2022-11-17T00:59:18.464Z,12.45
2022-11-17T01:01:48.000Z,13.35
2022-11-17T01:04:15.888Z,11.38
2022-11-17T01:06:46.941Z,12.00
2022-11-17T01:09:20.794Z,13.25
2022-11-17T01:11:50.970Z,12.13
2022-11-17T01:14:22.663Z,16.92
2022-11-17T01:16:50.928Z,14.85
2022-11-17T01:19:19.004Z,13.88
2022-11-17T01:21:47.147Z,13.38
2022-11-17T01:24:16.490Z,13.65
2022-11-17T01:26:45.877Z,11.95
2022-11-17T01:29:17.244Z,13.77
2022-11-17T01:31:49.157Z,13.80
2022-11-17T01:34:16.035Z,9.38
2022-11-17T01:37:03.117Z,10.85
2022-11-17T01:39:32.215Z,12.82
2022-11-17T01:42:16.258Z,13.35
2022-11-17T01:44:54.664Z,10.95
2022-11-17T01:47:33.730Z,11.05
2022-11-17T01:50:39.999Z,9.48
2022-11-17T01:53:14.082Z,10.18
2022-11-17T01:55:50.505Z,9.45
2022-11-17T01:58:37.943Z,11.57
2022-11-17T02:01:04.990Z,5.40
2022-11-17T02:03:34.844Z,4.47
2022-11-17T02:06:15.583Z,6.60
2022-11-17T02:08:49.242Z,4.15
2022-11-17T02:11:19.532Z,3.78
2022-11-17T02:13:47.131Z,3.33
2022-11-17T02:16:16.688Z,3.65
2022-11-17T02:18:46.817Z,4.05
2022-11-17T02:22:05.833Z,4.20
2022-11-17T02:25:05.187Z,4.25
2022-11-17T02:28:00.652Z,4.32
2022-11-17T02:33:38.701Z,4.40
2022-11-17T02:36:22.893Z,4.20
2022-11-17T02:39:20.167Z,4.50
2022-11-17T02:42:01.250Z,48.08
2022-11-17T02:44:47.549Z,9.77
2022-11-17T02:47:23.820Z,4.85
2022-11-17T02:49:59.039Z,5.18
2022-11-17T02:52:29.794Z,4.38
2022-11-17T02:55:08.306Z,4.85
2022-11-17T02:57:41.591Z,6.82
2022-11-17T03:00:18.862Z,4.60
2022-11-17T03:03:23.366Z,4.82
2022-11-17T03:06:10.965Z,5.10
2022-11-17T03:09:21.874Z,5.15
2022-11-17T03:11:58.158Z,5.18
2022-11-17T03:14:45.102Z,4.97
2022-11-17T03:17:23.786Z,4.70
2022-11-17T03:20:19.641Z,4.72
2022-11-17T03:23:08.667Z,5.10
2022-11-17T03:25:41.640Z,4.78
2022-11-17T03:28:12.442Z,6.38
2022-11-17T03:30:45.536Z,4.03
2022-11-17T03:33:20.144Z,4.32
2022-11-17T03:36:01.343Z,5.10
2022-11-17T03:38:35.491Z,4.13
2022-11-17T03:41:06.991Z,4.25
2022-11-17T03:43:34.724Z,4.47
2022-11-17T03:46:13.141Z,3.83
2022-11-17T03:48:50.282Z,3.45
2022-11-17T03:51:25.212Z,3.95
2022-11-17T03:53:54.671Z,4.60
2022-11-17T03:57:01.092Z,4.35
2022-11-17T04:02:35.915Z,3.70
2022-11-17T04:05:05.974Z,4.28
2022-11-17T04:07:45.710Z,4.47
2022-11-17T04:10:19.355Z,3.92
2022-11-17T04:13:07.639Z,3.78
2022-11-17T04:15:52.911Z,4.43
2022-11-17T04:18:22.173Z,4.47
2022-11-17T04:20:55.345Z,3.80
2022-11-17T04:23:25.417Z,4.80
2022-11-17T04:26:14.748Z,4.90
2022-11-17T04:28:49.434Z,4.03
2022-11-17T04:31:19.029Z,8.07
2022-11-17T04:33:58.787Z,5.28
2022-11-17T04:36:46.168Z,5.60
2022-11-17T04:39:15.781Z,4.47
2022-11-17T04:42:03.208Z,4.93
2022-11-17T04:44:32.724Z,4.97
2022-11-17T04:47:03.068Z,4.60
2022-11-17T04:49:32.129Z,6.25
2022-11-17T04:51:59.075Z,8.25
2022-11-17T04:54:26.208Z,5.63
2022-11-17T04:56:54.678Z,6.03
2022-11-17T04:59:22.342Z,6.00
2022-11-17T05:01:50.143Z,9.25
2022-11-17T05:04:38.388Z,8.52
2022-11-17T05:07:06.457Z,8.60
2022-11-17T05:09:33.616Z,6.20
2022-11-17T05:12:18.949Z,6.18
2022-11-17T05:14:49.080Z,8.80
2022-11-17T05:17:16.677Z,9.63
2022-11-17T05:19:47.144Z,7.70
2022-11-17T05:22:51.270Z,5.30
2022-11-17T05:25:18.590Z,7.82
2022-11-17T05:27:45.371Z,7.15
2022-11-17T05:30:13.138Z,8.65
2022-11-17T05:32:39.971Z,9.52
2022-11-17T05:35:07.608Z,8.25
2022-11-17T05:37:34.377Z,9.30
2022-11-17T05:40:01.378Z,8.30
2022-11-17T05:42:28.167Z,8.88
2022-11-17T05:44:55.291Z,7.47
2022-11-17T05:47:22.115Z,6.82
2022-11-17T05:49:49.110Z,6.57
2022-11-17T05:52:15.989Z,7.20
2022-11-17T05:54:43.172Z,8.20
2022-11-17T05:57:19.894Z,7.78
2022-11-17T05:59:55.420Z,6.82
2022-11-17T06:02:54.763Z,7.38
2022-11-17T06:05:24.010Z,6.15
2022-11-17T06:07:54.909Z,7.22
2022-11-17T06:10:21.648Z,6.43
2022-11-17T06:12:48.890Z,8.52
2022-11-17T06:15:15.899Z,9.77
2022-11-17T06:17:58.477Z,8.40
2022-11-17T06:20:30.526Z,14.02
2022-11-17T06:23:05.263Z,7.57
2022-11-17T06:25:35.400Z,7.88
2022-11-17T06:28:07.851Z,8.93
2022-11-17T06:30:37.556Z,8.02
2022-11-17T06:33:10.598Z,7.90
2022-11-17T06:35:38.655Z,9.07
2022-11-17T06:38:05.820Z,10.20
2022-11-17T06:40:32.711Z,8.68
2022-11-17T06:43:12.536Z,9.65
2022-11-17T06:45:46.042Z,10.45
2022-11-17T06:48:16.834Z,8.05
2022-11-17T06:50:44.540Z,8.80
2022-11-17T06:53:12.857Z,12.43
2022-11-17T06:55:39.972Z,9.88
2022-11-17T06:58:11.735Z,12.65
2022-11-17T07:00:39.049Z,9.27
2022-11-17T07:03:09.297Z,15.05
2022-11-17T07:05:40.089Z,9.23
2022-11-17T07:08:08.750Z,11.15
2022-11-17T07:10:36.708Z,11.15
2022-11-17T07:13:04.036Z,13.80
2022-11-17T07:15:31.889Z,11.25
2022-11-17T07:17:59.072Z,11.63
2022-11-17T07:20:25.996Z,15.10
2022-11-17T07:23:00.050Z,13.50
2022-11-17T07:25:26.952Z,13.85
2022-11-17T07:27:59.562Z,13.43
2022-11-17T07:30:26.992Z,15.30
2022-11-17T07:32:54.994Z,10.98
2022-11-17T07:35:21.970Z,13.40
2022-11-17T07:37:50.313Z,12.63
2022-11-17T07:40:17.336Z,15.73
2022-11-17T07:42:50.910Z,14.10
2022-11-17T07:45:18.315Z,15.70
2022-11-17T07:47:45.375Z,12.35
2022-11-17T07:50:12.265Z,20.80
2022-11-17T07:52:41.549Z,14.90
2022-11-17T07:55:08.869Z,15.82
2022-11-17T07:57:36.616Z,15.38
2022-11-17T08:00:04.695Z,15.68
2022-11-17T08:02:31.778Z,12.57
2022-11-17T08:04:58.682Z,14.68
2022-11-17T08:07:25.829Z,15.80
2022-11-17T08:09:52.800Z,13.02
2022-11-17T08:12:19.923Z,15.25
2022-11-17T08:14:46.779Z,15.35
2022-11-17T08:17:14.123Z,16.25
2022-11-17T08:19:41.092Z,14.13
2022-11-17T08:22:08.310Z,20.90
2022-11-17T08:24:35.155Z,20.40
2022-11-17T08:27:02.312Z,15.75
2022-11-17T08:29:29.178Z,15.50
2022-11-17T08:31:56.349Z,14.48
2022-11-17T08:34:23.347Z,13.77
2022-11-17T08:36:50.575Z,16.17
2022-11-17T08:39:17.471Z,16.25
2022-11-17T08:41:44.723Z,17.25
2022-11-17T08:44:11.606Z,16.55
2022-11-17T08:46:38.798Z,12.27
2022-11-17T08:49:05.769Z,18.45
2022-11-17T08:51:33.302Z,15.40
2022-11-17T08:54:00.323Z,18.35
2022-11-17T08:56:27.622Z,13.35
2022-11-17T08:58:54.698Z,19.50
2022-11-17T09:01:21.888Z,11.90
2022-11-17T09:03:49.065Z,12.30
2022-11-17T09:06:18.131Z,13.90
2022-11-17T09:08:56.479Z,12.32
2022-11-17T09:11:23.869Z,18.17
2022-11-17T09:13:51.025Z,14.90
2022-11-17T09:16:18.602Z,14.57
2022-11-17T09:18:45.768Z,18.52
2022-11-17T09:21:15.755Z,20.35
2022-11-17T09:23:43.325Z,13.85
2022-11-17T09:26:14.671Z,11.60
2022-11-17T09:28:43.070Z,15.98
2022-11-17T09:31:14.429Z,14.55
2022-11-17T09:33:43.348Z,15.75
2022-11-17T09:36:12.844Z,18.95
2022-11-17T09:38:40.842Z,14.93
2022-11-17T09:41:33.446Z,18.50
2022-11-17T09:44:39.994Z,12.50
2022-11-17T09:47:48.044Z,17.98
2022-11-17T09:50:37.299Z,11.43
2022-11-17T09:53:29.466Z,14.75
2022-11-17T09:56:02.735Z,12.40
2022-11-17T09:58:50.996Z,13.32
2022-11-17T10:01:22.055Z,12.75
2022-11-17T10:03:53.633Z,11.95
2022-11-17T10:06:28.694Z,16.08
2022-11-17T10:09:07.043Z,12.32
2022-11-17T10:11:41.483Z,13.00
2022-11-17T10:14:08.615Z,12.30
2022-11-17T10:16:37.663Z,11.38
2022-11-17T10:19:20.163Z,12.48
2022-11-17T10:21:57.788Z,10.77
2022-11-17T10:24:38.844Z,10.93
2022-11-17T10:27:23.556Z,13.63
2022-11-17T10:30:20.108Z,12.60
2022-11-17T10:32:56.946Z,13.43
2022-11-17T10:35:36.382Z,12.23
2022-11-17T10:38:13.849Z,12.38
2022-11-17T10:40:40.917Z,14.73
2022-11-17T10:43:13.864Z,14.95
2022-11-17T10:45:50.978Z,12.27
2022-11-17T10:48:31.830Z,12.80
2022-11-17T10:51:19.564Z,11.50
2022-11-17T10:54:17.153Z,10.77
2022-11-17T10:56:52.092Z,12.27
2022-11-17T10:59:20.745Z,13.77
2022-11-17T11:01:51.519Z,15.43
2022-11-17T11:04:32.312Z,13.93
2022-11-17T11:07:28.914Z,14.85
2022-11-17T11:10:26.417Z,10.73
2022-11-17T11:13:44.275Z,11.93
2022-11-17T11:16:12.096Z,14.38
2022-11-17T11:18:39.520Z,11.77
2022-11-17T11:21:50.591Z,13.80
2022-11-17T11:24:34.953Z,13.10
2022-11-17T11:27:28.244Z,13.70
2022-11-17T11:30:06.319Z,14.32
2022-11-17T11:32:58.586Z,14.73
2022-11-17T11:36:02.436Z,13.20
2022-11-17T11:39:04.027Z,11.15
2022-11-17T11:41:36.938Z,17.88
2022-11-17T11:44:22.986Z,17.25
2022-11-17T11:47:26.944Z,17.00
2022-11-17T11:50:11.176Z,18.48
2022-11-17T11:52:44.847Z,16.13
2022-11-17T11:55:24.831Z,15.65
2022-11-17T11:58:17.376Z,16.05
2022-11-17T12:00:49.465Z,15.23
2022-11-17T12:03:24.264Z,20.27
2022-11-17T12:06:41.772Z,49.97
2022-11-17T12:09:36.792Z,16.60
2022-11-17T12:12:14.559Z,22.25
2022-11-17T12:15:19.274Z,17.13
2022-11-17T12:18:29.366Z,13.30
2022-11-17T12:21:06.020Z,13.80
2022-11-17T12:23:48.491Z,15.07
2022-11-17T12:26:31.588Z,14.35
2022-11-17T12:29:20.346Z,13.85
2022-11-17T12:31:56.689Z,15.90
2022-11-17T12:34:33.926Z,19.05
2022-11-17T12:37:19.346Z,15.27
2022-11-17T12:40:11.611Z,14.63
2022-11-17T12:43:16.873Z,18.00
2022-11-17T12:45:55.909Z,16.90
2022-11-17T12:48:35.112Z,17.90
2022-11-17T12:51:34.673Z,18.67
2022-11-17T12:54:38.412Z,15.77
2022-11-17T12:57:13.348Z,17.17
2022-11-17T13:00:02.662Z,16.40
2022-11-17T13:02:58.014Z,18.58
2022-11-17T13:05:30.216Z,19.20
2022-11-17T13:08:13.900Z,17.08
2022-11-17T13:10:41.848Z,18.33
2022-11-17T13:13:24.452Z,17.88
2022-11-17T13:15:55.881Z,17.55
2022-11-17T13:18:41.232Z,23.60
2022-11-17T13:21:26.686Z,20.13
2022-11-17T13:23:54.040Z,19.00
2022-11-17T13:26:35.841Z,23.33
2022-11-17T13:29:09.950Z,21.42
2022-11-17T13:31:37.213Z,18.45
2022-11-17T13:34:10.253Z,17.92
2022-11-17T13:36:52.955Z,17.90
2022-11-17T13:39:25.739Z,22.05
2022-11-17T13:41:56.435Z,17.20
2022-11-17T13:44:27.106Z,15.63
2022-11-17T13:46:54.258Z,22.85
2022-11-17T13:49:34.537Z,18.55
2022-11-17T13:52:04.805Z,18.13
2022-11-17T13:54:32.545Z,18.55
2022-11-17T13:57:08.756Z,20.00
2022-11-17T13:59:39.207Z,18.13
2022-11-17T14:02:26.168Z,19.48
2022-11-17T14:05:11.238Z,19.40
2022-11-17T14:10:22.406Z,16.88
2022-11-17T14:12:53.490Z,24.00
2022-11-17T14:15:28.520Z,20.70
2022-11-17T14:17:59.955Z,23.50
2022-11-17T14:20:36.212Z,27.65
2022-11-17T14:23:10.532Z,20.60
2022-11-17T14:25:53.162Z,17.90
2022-11-17T14:28:25.514Z,20.13
2022-11-17T14:30:57.836Z,17.85
2022-11-17T14:33:25.941Z,16.92
2022-11-17T14:35:57.043Z,18.45
2022-11-17T14:38:24.803Z,17.00
2022-11-17T14:40:53.566Z,17.52
2022-11-17T14:43:21.983Z,16.17
2022-11-17T14:45:50.537Z,14.00
2022-11-17T14:48:19.685Z,12.57
2022-11-17T14:50:47.548Z,13.77
2022-11-17T14:53:15.120Z,13.95
2022-11-17T14:55:41.990Z,10.70
2022-11-17T14:58:10.036Z,16.00
2022-11-17T15:00:37.734Z,15.23
2022-11-17T15:03:05.338Z,11.95
2022-11-17T15:05:32.588Z,11.13
2022-11-17T15:08:00.107Z,12.02
2022-11-17T15:10:26.966Z,16.65
2022-11-17T15:12:54.145Z,10.43
2022-11-17T15:15:21.166Z,10.95
2022-11-17T15:17:48.227Z,14.15
2022-11-17T15:20:15.211Z,11.50
2022-11-17T15:22:42.492Z,12.23
2022-11-17T15:25:09.698Z,12.63
2022-11-17T15:27:36.782Z,10.63
2022-11-17T15:30:04.856Z,11.95
2022-11-17T15:32:32.145Z,10.88
2022-11-17T15:34:59.058Z,11.30
2022-11-17T15:37:26.281Z,11.75
2022-11-17T15:39:53.819Z,13.90
2022-11-17T15:42:20.968Z,13.27
2022-11-17T15:44:47.800Z,11.57
2022-11-17T15:47:14.919Z,13.05
2022-11-17T15:49:41.771Z,13.38
2022-11-17T15:52:08.874Z,16.63
2022-11-17T15:54:35.703Z,15.85
2022-11-17T15:57:02.909Z,14.43
2022-11-17T15:59:29.964Z,14.43
2022-11-17T16:01:57.145Z,16.20
2022-11-17T16:04:24.349Z,19.75
2022-11-17T16:06:51.625Z,18.90
2022-11-17T16:09:18.731Z,15.23
2022-11-17T16:11:46.032Z,19.70
2022-11-17T16:14:14.849Z,19.23
2022-11-17T16:16:42.247Z,18.83
2022-11-17T16:19:09.348Z,17.58
2022-11-17T16:21:36.503Z,17.20
2022-11-17T16:24:03.618Z,17.45
2022-11-17T16:26:31.372Z,17.92
2022-11-17T16:29:01.823Z,19.15
2022-11-17T16:31:32.916Z,20.58
2022-11-17T16:34:21.915Z,18.23
2022-11-17T16:36:49.132Z,20.27
2022-11-17T16:39:17.650Z,20.83
2022-11-17T16:41:45.757Z,21.35
2022-11-17T16:44:17.144Z,20.63
2022-11-17T16:46:47.884Z,21.58
2022-11-17T16:49:18.343Z,23.60
2022-11-17T16:51:51.679Z,22.95
2022-11-17T16:54:19.827Z,22.98
2022-11-17T16:56:47.094Z,22.98
2022-11-17T16:59:15.029Z,22.75
2022-11-17T17:01:42.424Z,26.17
2022-11-17T17:04:10.996Z,22.55
2022-11-17T17:06:44.083Z,24.52
2022-11-17T17:09:14.111Z,21.30
2022-11-17T17:11:41.756Z,25.27
2022-11-17T17:14:13.318Z,25.55
2022-11-17T17:16:41.489Z,27.27
2022-11-17T17:19:11.914Z,24.52
2022-11-17T17:21:40.959Z,24.95
2022-11-17T17:24:09.282Z,25.73
2022-11-17T17:26:39.197Z,28.17
2022-11-17T17:29:06.655Z,26.73
2022-11-17T17:31:38.008Z,27.17
2022-11-17T17:34:06.656Z,27.02
2022-11-17T17:36:35.193Z,27.08
2022-11-17T17:39:03.542Z,25.25
2022-11-17T17:41:35.097Z,25.42
2022-11-17T17:44:05.281Z,25.80
2022-11-17T17:46:37.503Z,27.35
2022-11-17T17:49:05.075Z,25.55
2022-11-17T17:51:32.185Z,25.25
2022-11-17T17:54:02.067Z,24.77
2022-11-17T17:56:30.801Z,25.05
2022-11-17T17:58:58.690Z,24.73
2022-11-17T18:01:29.386Z,30.30
2022-11-17T18:04:04.725Z,24.63
2022-11-17T18:06:39.087Z,30.27
2022-11-17T18:09:07.994Z,29.88
2022-11-17T18:11:35.950Z,30.98
2022-11-17T18:14:04.321Z,29.65
2022-11-17T18:16:34.086Z,30.52
2022-11-17T18:19:05.462Z,26.80
2022-11-17T18:21:33.331Z,28.88
2022-11-17T18:24:02.429Z,29.08
2022-11-17T18:26:35.511Z,30.17
2022-11-17T18:29:14.806Z,28.48
2022-11-17T18:31:43.034Z,27.83
2022-11-17T18:34:25.517Z,29.17
2022-11-17T18:36:58.405Z,27.17
2022-11-17T18:39:25.477Z,28.50
2022-11-17T18:41:52.728Z,38.38
2022-11-17T18:44:20.053Z,30.25
2022-11-17T18:46:47.817Z,27.98
2022-11-17T18:49:15.000Z,29.48
2022-11-17T18:51:42.666Z,54.67
2022-11-17T18:54:12.632Z,45.22
2022-11-17T18:56:40.147Z,46.28
2022-11-17T18:59:11.818Z,38.42
2022-11-17T19:01:42.870Z,37.38
2022-11-17T19:04:13.713Z,33.53
2022-11-17T19:06:41.275Z,51.13
2022-11-17T19:09:08.584Z,48.08
2022-11-17T19:11:35.960Z,36.80
2022-11-17T19:14:07.292Z,39.35
2022-11-17T19:16:44.076Z,42.47
2022-11-17T19:19:13.663Z,39.05
2022-11-17T19:21:41.524Z,35.58
2022-11-17T19:24:09.159Z,27.67
2022-11-17T19:26:36.339Z,32.53
2022-11-17T19:29:14.303Z,35.15
2022-11-17T19:31:43.992Z,29.17
2022-11-17T19:34:11.462Z,33.55
2022-11-17T19:36:39.488Z,35.38
2022-11-17T19:39:06.497Z,35.10
2022-11-17T19:41:38.618Z,32.40
2022-11-17T19:44:08.763Z,35.40
2022-11-17T19:46:37.175Z,38.33
2022-11-17T19:49:06.136Z,36.65
2022-11-17T19:51:37.023Z,38.08
2022-11-17T19:54:08.027Z,36.28
2022-11-17T19:56:36.491Z,32.90
2022-11-17T19:59:03.658Z,37.28
2022-11-17T20:01:32.246Z,36.35
2022-11-17T20:04:01.196Z,33.35
2022-11-17T20:06:36.199Z,35.22
2022-11-17T20:09:12.522Z,36.97
2022-11-17T20:11:40.987Z,36.03
2022-11-17T20:14:08.032Z,35.88
2022-11-17T20:16:36.853Z,38.03
2022-11-17T20:19:03.847Z,35.78
2022-11-17T20:21:31.895Z,33.42
2022-11-17T20:23:59.440Z,35.22
2022-11-17T20:26:32.649Z,34.63
2022-11-17T20:29:01.069Z,37.72
2022-11-17T20:31:33.054Z,35.70
2022-11-17T20:34:02.149Z,37.97
2022-11-17T20:36:32.659Z,36.42
2022-11-17T20:39:03.824Z,35.88
2022-11-17T20:41:31.344Z,36.22
2022-11-17T20:44:00.466Z,34.92
2022-11-17T20:46:28.281Z,34.95
2022-11-17T20:48:55.307Z,39.13
2022-11-17T20:51:25.038Z,38.28
2022-11-17T20:53:52.722Z,33.25
2022-11-17T20:56:21.961Z,33.60
2022-11-17T20:58:49.090Z,34.75
2022-11-17T21:01:19.873Z,34.95
2022-11-17T21:03:47.650Z,35.55
2022-11-17T21:06:15.959Z,37.10
2022-11-17T21:08:45.019Z,32.33
2022-11-17T21:11:37.314Z,32.33
2022-11-17T21:14:07.465Z,38.83
2022-11-17T21:16:37.819Z,36.63
2022-11-17T21:19:05.704Z,33.88
2022-11-17T21:21:33.396Z,39.47
2022-11-17T21:24:00.291Z,36.33
2022-11-17T21:26:28.115Z,34.92
2022-11-17T21:28:58.402Z,35.95
2022-11-17T21:31:31.289Z,36.13
2022-11-17T21:34:02.532Z,35.35
2022-11-17T21:36:34.413Z,38.92
2022-11-17T21:39:02.033Z,34.83
2022-11-17T21:41:34.768Z,40.65
2022-11-17T21:44:03.189Z,36.65
2022-11-17T21:46:33.959Z,38.25
2022-11-17T21:49:01.609Z,37.47
2022-11-17T21:51:33.513Z,37.05
2022-11-17T21:54:08.689Z,43.53
2022-11-17T21:56:36.676Z,39.55
2022-11-17T21:59:12.477Z,37.70
2022-11-17T22:01:40.393Z,32.20
2022-11-17T22:04:07.321Z,41.35
2022-11-17T22:06:34.821Z,43.92
2022-11-17T22:09:01.633Z,40.08
2022-11-17T22:11:37.609Z,37.83
2022-11-17T22:14:08.119Z,35.15
2022-11-17T22:16:38.139Z,39.00
2022-11-17T22:19:06.208Z,34.97
2022-11-17T22:21:33.816Z,37.60
2022-11-17T22:24:00.858Z,44.90
2022-11-17T22:26:28.293Z,41.45
2022-11-17T22:28:56.083Z,39.90
2022-11-17T22:31:24.146Z,40.60
2022-11-17T22:33:51.705Z,38.97
2022-11-17T22:36:19.913Z,40.40
2022-11-17T22:38:51.439Z,43.17
2022-11-17T22:41:21.932Z,38.25
2022-11-17T22:43:55.146Z,43.65
2022-11-17T22:46:26.374Z,42.75
2022-11-17T22:48:53.621Z,46.72
2022-11-17T22:51:40.035Z,41.95
2022-11-17T22:54:08.627Z,39.92
2022-11-17T22:56:36.412Z,40.97
2022-11-17T22:59:03.633Z,41.88
2022-11-17T23:01:30.892Z,40.72
2022-11-17T23:03:58.457Z,41.22
2022-11-17T23:06:27.435Z,35.30
2022-11-17T23:08:56.168Z,42.90
2022-11-17T23:11:39.551Z,42.53
2022-11-17T23:14:11.246Z,44.00
2022-11-17T23:16:39.479Z,40.17
2022-11-17T23:19:07.214Z,42.58
2022-11-17T23:21:34.348Z,45.13
2022-11-17T23:24:01.151Z,42.22
2022-11-17T23:26:28.380Z,42.78
2022-11-17T23:28:55.528Z,45.13
2022-11-17T23:31:22.603Z,47.30
2022-11-17T23:33:49.538Z,41.70
2022-11-17T23:36:20.146Z,44.35
2022-11-17T23:38:49.255Z,40.42
2022-11-17T23:41:19.875Z,42.33
2022-11-17T23:43:52.311Z,46.42
2022-11-17T23:46:23.442Z,42.25
2022-11-17T23:48:50.691Z,45.47
2022-11-17T23:51:22.977Z,41.10
2022-11-17T23:53:50.537Z,41.20
2022-11-17T23:56:20.457Z,41.88
2022-11-17T23:58:48.025Z,39.90
